sensor_id;sensor_type;location;lat;lon;timestamp;P1;durP1;ratioP1;P2;durP2;ratioP2
55063;SDS011;40963;52.168;21.296;2022-12-19T00:01:57;10.60;;;4.80;;
55063;SDS011;40963;52.168;21.296;2022-12-19T00:04:23;13.60;;;8.48;;
55063;SDS011;40963;52.168;21.296;2022-12-19T00:06:49;13.40;;;5.72;;
55063;SDS011;40963;52.168;21.296;2022-12-19T00:09:14;15.32;;;6.55;;
55063;SDS011;40963;52.168;21.296;2022-12-19T00:11:40;18.63;;;7.50;;
55063;SDS011;40963;52.168;21.296;2022-12-19T00:14:07;19.15;;;7.65;;
55063;SDS011;40963;52.168;21.296;2022-12-19T00:16:34;13.38;;;7.05;;
55063;SDS011;40963;52.168;21.296;2022-12-19T00:19:00;10.40;;;4.82;;
55063;SDS011;40963;52.168;21.296;2022-12-19T00:21:27;30.05;;;9.55;;
55063;SDS011;40963;52.168;21.296;2022-12-19T00:23:55;12.98;;;6.20;;
55063;SDS011;40963;52.168;21.296;2022-12-19T00:26:25;11.98;;;6.47;;
55063;SDS011;40963;52.168;21.296;2022-12-19T00:28:55;13.65;;;6.68;;
55063;SDS011;40963;52.168;21.296;2022-12-19T00:31:28;13.07;;;6.32;;
55063;SDS011;40963;52.168;21.296;2022-12-19T00:33:55;19.08;;;8.00;;
55063;SDS011;40963;52.168;21.296;2022-12-19T00:36:22;19.88;;;7.35;;
55063;SDS011;40963;52.168;21.296;2022-12-19T00:38:50;17.15;;;7.60;;
55063;SDS011;40963;52.168;21.296;2022-12-19T00:41:18;10.98;;;6.32;;
55063;SDS011;40963;52.168;21.296;2022-12-19T00:43:46;13.75;;;6.57;;
55063;SDS011;40963;52.168;21.296;2022-12-19T00:46:15;13.23;;;6.68;;
55063;SDS011;40963;52.168;21.296;2022-12-19T00:48:41;13.63;;;6.30;;
55063;SDS011;40963;52.168;21.296;2022-12-19T00:51:10;22.17;;;6.72;;
55063;SDS011;40963;52.168;21.296;2022-12-19T00:53:39;17.33;;;7.00;;
55063;SDS011;40963;52.168;21.296;2022-12-19T00:56:05;10.77;;;5.78;;
55063;SDS011;40963;52.168;21.296;2022-12-19T00:58:34;7.55;;;4.45;;
55063;SDS011;40963;52.168;21.296;2022-12-19T01:01:06;14.68;;;6.82;;
55063;SDS011;40963;52.168;21.296;2022-12-19T01:03:40;19.52;;;7.45;;
55063;SDS011;40963;52.168;21.296;2022-12-19T01:06:06;15.85;;;6.68;;
55063;SDS011;40963;52.168;21.296;2022-12-19T01:08:32;15.57;;;6.00;;
55063;SDS011;40963;52.168;21.296;2022-12-19T01:10:58;15.57;;;6.70;;
55063;SDS011;40963;52.168;21.296;2022-12-19T01:13:25;20.85;;;8.10;;
55063;SDS011;40963;52.168;21.296;2022-12-19T01:15:51;16.63;;;6.43;;
55063;SDS011;40963;52.168;21.296;2022-12-19T01:18:17;15.35;;;7.75;;
55063;SDS011;40963;52.168;21.296;2022-12-19T01:20:43;15.30;;;7.03;;
55063;SDS011;40963;52.168;21.296;2022-12-19T01:23:13;16.92;;;7.85;;
55063;SDS011;40963;52.168;21.296;2022-12-19T01:25:39;32.90;;;10.95;;
55063;SDS011;40963;52.168;21.296;2022-12-19T01:28:06;16.30;;;9.23;;
55063;SDS011;40963;52.168;21.296;2022-12-19T01:30:34;17.85;;;8.25;;
55063;SDS011;40963;52.168;21.296;2022-12-19T01:33:00;13.13;;;6.97;;
55063;SDS011;40963;52.168;21.296;2022-12-19T01:35:26;20.38;;;9.32;;
55063;SDS011;40963;52.168;21.296;2022-12-19T01:37:52;13.48;;;6.60;;
55063;SDS011;40963;52.168;21.296;2022-12-19T01:40:19;11.70;;;5.43;;
55063;SDS011;40963;52.168;21.296;2022-12-19T01:42:45;10.88;;;5.00;;
55063;SDS011;40963;52.168;21.296;2022-12-19T01:47:42;25.15;;;7.30;;
55063;SDS011;40963;52.168;21.296;2022-12-19T01:50:18;17.30;;;7.70;;
55063;SDS011;40963;52.168;21.296;2022-12-19T01:53:05;6.25;;;5.35;;
55063;SDS011;40963;52.168;21.296;2022-12-19T01:55:33;8.70;;;6.03;;
55063;SDS011;40963;52.168;21.296;2022-12-19T01:58:00;17.38;;;7.22;;
55063;SDS011;40963;52.168;21.296;2022-12-19T02:00:26;13.02;;;5.70;;
55063;SDS011;40963;52.168;21.296;2022-12-19T02:02:56;13.43;;;7.22;;
55063;SDS011;40963;52.168;21.296;2022-12-19T02:05:43;12.70;;;5.88;;
55063;SDS011;40963;52.168;21.296;2022-12-19T02:08:10;10.48;;;6.20;;
55063;SDS011;40963;52.168;21.296;2022-12-19T02:10:36;18.35;;;7.35;;
55063;SDS011;40963;52.168;21.296;2022-12-19T02:13:02;11.45;;;6.78;;
55063;SDS011;40963;52.168;21.296;2022-12-19T02:15:29;13.25;;;5.43;;
55063;SDS011;40963;52.168;21.296;2022-12-19T02:26:11;18.80;;;7.00;;
55063;SDS011;40963;52.168;21.296;2022-12-19T02:31:47;14.30;;;7.97;;
55063;SDS011;40963;52.168;21.296;2022-12-19T02:37:20;24.67;;;8.63;;
55063;SDS011;40963;52.168;21.296;2022-12-19T02:42:40;25.38;;;9.98;;
55063;SDS011;40963;52.168;21.296;2022-12-19T02:45:09;19.17;;;7.63;;
55063;SDS011;40963;52.168;21.296;2022-12-19T02:47:38;19.15;;;9.57;;
55063;SDS011;40963;52.168;21.296;2022-12-19T02:50:05;19.50;;;9.27;;
55063;SDS011;40963;52.168;21.296;2022-12-19T02:55:07;27.42;;;7.32;;
55063;SDS011;40963;52.168;21.296;2022-12-19T03:00:21;16.17;;;9.07;;
55063;SDS011;40963;52.168;21.296;2022-12-19T03:05:43;25.00;;;7.03;;
55063;SDS011;40963;52.168;21.296;2022-12-19T03:08:34;21.63;;;8.68;;
55063;SDS011;40963;52.168;21.296;2022-12-19T03:11:07;21.23;;;9.27;;
55063;SDS011;40963;52.168;21.296;2022-12-19T03:13:38;28.10;;;9.88;;
55063;SDS011;40963;52.168;21.296;2022-12-19T03:16:12;22.80;;;10.30;;
55063;SDS011;40963;52.168;21.296;2022-12-19T03:18:39;25.52;;;9.80;;
55063;SDS011;40963;52.168;21.296;2022-12-19T03:21:07;17.50;;;7.03;;
55063;SDS011;40963;52.168;21.296;2022-12-19T03:23:44;22.73;;;9.05;;
55063;SDS011;40963;52.168;21.296;2022-12-19T03:26:18;24.45;;;8.80;;
55063;SDS011;40963;52.168;21.296;2022-12-19T03:31:35;20.60;;;8.48;;
55063;SDS011;40963;52.168;21.296;2022-12-19T03:34:05;26.70;;;10.90;;
55063;SDS011;40963;52.168;21.296;2022-12-19T03:36:37;23.50;;;9.23;;
55063;SDS011;40963;52.168;21.296;2022-12-19T03:39:06;25.58;;;10.45;;
55063;SDS011;40963;52.168;21.296;2022-12-19T03:41:35;20.08;;;8.07;;
55063;SDS011;40963;52.168;21.296;2022-12-19T03:44:21;20.38;;;10.15;;
55063;SDS011;40963;52.168;21.296;2022-12-19T03:47:05;26.40;;;9.43;;
55063;SDS011;40963;52.168;21.296;2022-12-19T03:49:45;21.02;;;9.13;;
55063;SDS011;40963;52.168;21.296;2022-12-19T03:52:26;18.20;;;8.63;;
55063;SDS011;40963;52.168;21.296;2022-12-19T03:55:09;16.92;;;8.38;;
55063;SDS011;40963;52.168;21.296;2022-12-19T04:00:23;18.92;;;7.68;;
55063;SDS011;40963;52.168;21.296;2022-12-19T04:02:51;22.65;;;8.93;;
55063;SDS011;40963;52.168;21.296;2022-12-19T04:05:23;18.25;;;8.95;;
55063;SDS011;40963;52.168;21.296;2022-12-19T04:07:50;24.63;;;9.60;;
55063;SDS011;40963;52.168;21.296;2022-12-19T04:10:23;14.30;;;7.35;;
55063;SDS011;40963;52.168;21.296;2022-12-19T04:12:52;20.75;;;9.65;;
55063;SDS011;40963;52.168;21.296;2022-12-19T04:15:30;23.15;;;9.30;;
55063;SDS011;40963;52.168;21.296;2022-12-19T04:18:03;18.92;;;9.43;;
55063;SDS011;40963;52.168;21.296;2022-12-19T04:20:31;16.80;;;8.30;;
55063;SDS011;40963;52.168;21.296;2022-12-19T04:23:03;24.33;;;9.07;;
55063;SDS011;40963;52.168;21.296;2022-12-19T04:25:32;12.30;;;7.22;;
55063;SDS011;40963;52.168;21.296;2022-12-19T04:28:05;22.75;;;8.60;;
55063;SDS011;40963;52.168;21.296;2022-12-19T04:30:36;33.67;;;8.85;;
55063;SDS011;40963;52.168;21.296;2022-12-19T04:33:03;19.67;;;7.60;;
55063;SDS011;40963;52.168;21.296;2022-12-19T04:35:30;20.05;;;9.07;;
55063;SDS011;40963;52.168;21.296;2022-12-19T04:37:55;23.08;;;8.45;;
55063;SDS011;40963;52.168;21.296;2022-12-19T04:40:21;21.63;;;9.57;;
55063;SDS011;40963;52.168;21.296;2022-12-19T04:42:47;30.70;;;11.68;;
55063;SDS011;40963;52.168;21.296;2022-12-19T04:45:12;15.52;;;9.40;;
55063;SDS011;40963;52.168;21.296;2022-12-19T04:47:41;17.52;;;9.75;;
55063;SDS011;40963;52.168;21.296;2022-12-19T04:50:07;15.85;;;8.43;;
55063;SDS011;40963;52.168;21.296;2022-12-19T04:52:33;30.83;;;10.68;;
55063;SDS011;40963;52.168;21.296;2022-12-19T04:54:59;22.38;;;8.85;;
55063;SDS011;40963;52.168;21.296;2022-12-19T04:57:27;26.60;;;8.30;;
55063;SDS011;40963;52.168;21.296;2022-12-19T04:59:54;20.52;;;7.82;;
55063;SDS011;40963;52.168;21.296;2022-12-19T05:02:19;17.90;;;8.00;;
55063;SDS011;40963;52.168;21.296;2022-12-19T05:04:45;21.90;;;8.57;;
55063;SDS011;40963;52.168;21.296;2022-12-19T05:07:11;19.77;;;9.68;;
55063;SDS011;40963;52.168;21.296;2022-12-19T05:09:37;24.77;;;10.13;;
55063;SDS011;40963;52.168;21.296;2022-12-19T05:12:03;18.60;;;10.60;;
55063;SDS011;40963;52.168;21.296;2022-12-19T05:14:30;20.63;;;10.05;;
55063;SDS011;40963;52.168;21.296;2022-12-19T05:16:56;19.33;;;8.95;;
55063;SDS011;40963;52.168;21.296;2022-12-19T05:19:22;20.60;;;9.45;;
55063;SDS011;40963;52.168;21.296;2022-12-19T05:21:47;16.52;;;9.30;;
55063;SDS011;40963;52.168;21.296;2022-12-19T05:24:13;29.08;;;10.88;;
55063;SDS011;40963;52.168;21.296;2022-12-19T05:26:39;17.50;;;9.73;;
55063;SDS011;40963;52.168;21.296;2022-12-19T05:29:04;31.75;;;10.75;;
55063;SDS011;40963;52.168;21.296;2022-12-19T05:31:31;22.05;;;11.25;;
55063;SDS011;40963;52.168;21.296;2022-12-19T05:33:57;40.83;;;11.27;;
55063;SDS011;40963;52.168;21.296;2022-12-19T05:36:23;27.40;;;10.40;;
55063;SDS011;40963;52.168;21.296;2022-12-19T05:38:49;19.95;;;10.18;;
55063;SDS011;40963;52.168;21.296;2022-12-19T05:41:16;30.88;;;11.55;;
55063;SDS011;40963;52.168;21.296;2022-12-19T05:43:48;22.63;;;9.73;;
55063;SDS011;40963;52.168;21.296;2022-12-19T05:46:15;25.10;;;11.05;;
55063;SDS011;40963;52.168;21.296;2022-12-19T05:48:41;18.77;;;9.57;;
55063;SDS011;40963;52.168;21.296;2022-12-19T05:51:07;23.25;;;10.13;;
55063;SDS011;40963;52.168;21.296;2022-12-19T05:53:36;21.58;;;10.02;;
55063;SDS011;40963;52.168;21.296;2022-12-19T05:56:04;20.10;;;10.43;;
55063;SDS011;40963;52.168;21.296;2022-12-19T05:58:33;28.27;;;9.05;;
55063;SDS011;40963;52.168;21.296;2022-12-19T06:01:10;21.88;;;9.25;;
55063;SDS011;40963;52.168;21.296;2022-12-19T06:03:40;29.58;;;10.50;;
55063;SDS011;40963;52.168;21.296;2022-12-19T06:06:08;18.08;;;8.52;;
55063;SDS011;40963;52.168;21.296;2022-12-19T06:08:35;19.92;;;9.05;;
55063;SDS011;40963;52.168;21.296;2022-12-19T06:11:02;45.30;;;13.68;;
55063;SDS011;40963;52.168;21.296;2022-12-19T06:13:29;26.95;;;9.30;;
55063;SDS011;40963;52.168;21.296;2022-12-19T06:15:59;20.48;;;8.73;;
55063;SDS011;40963;52.168;21.296;2022-12-19T06:18:26;23.23;;;10.90;;
55063;SDS011;40963;52.168;21.296;2022-12-19T06:21:02;20.33;;;9.82;;
55063;SDS011;40963;52.168;21.296;2022-12-19T06:23:31;27.77;;;11.20;;
55063;SDS011;40963;52.168;21.296;2022-12-19T06:25:59;19.77;;;9.38;;
55063;SDS011;40963;52.168;21.296;2022-12-19T06:28:26;17.17;;;8.93;;
55063;SDS011;40963;52.168;21.296;2022-12-19T06:31:00;39.50;;;15.63;;
55063;SDS011;40963;52.168;21.296;2022-12-19T06:33:27;44.17;;;15.50;;
55063;SDS011;40963;52.168;21.296;2022-12-19T06:35:57;25.02;;;10.35;;
55063;SDS011;40963;52.168;21.296;2022-12-19T06:38:24;25.00;;;8.85;;
55063;SDS011;40963;52.168;21.296;2022-12-19T06:40:50;23.10;;;10.65;;
55063;SDS011;40963;52.168;21.296;2022-12-19T06:43:34;25.00;;;12.23;;
55063;SDS011;40963;52.168;21.296;2022-12-19T06:46:00;26.80;;;11.70;;
55063;SDS011;40963;52.168;21.296;2022-12-19T06:48:26;24.35;;;9.23;;
55063;SDS011;40963;52.168;21.296;2022-12-19T06:50:52;18.60;;;9.23;;
55063;SDS011;40963;52.168;21.296;2022-12-19T06:53:17;23.50;;;9.57;;
55063;SDS011;40963;52.168;21.296;2022-12-19T06:55:47;27.38;;;13.05;;
55063;SDS011;40963;52.168;21.296;2022-12-19T06:58:14;24.92;;;9.80;;
55063;SDS011;40963;52.168;21.296;2022-12-19T07:00:39;22.52;;;10.32;;
55063;SDS011;40963;52.168;21.296;2022-12-19T07:03:05;35.35;;;15.27;;
55063;SDS011;40963;52.168;21.296;2022-12-19T07:05:37;19.77;;;10.45;;
55063;SDS011;40963;52.168;21.296;2022-12-19T07:08:04;33.95;;;15.27;;
55063;SDS011;40963;52.168;21.296;2022-12-19T07:10:30;30.48;;;13.45;;
55063;SDS011;40963;52.168;21.296;2022-12-19T07:12:55;79.75;;;34.60;;
55063;SDS011;40963;52.168;21.296;2022-12-19T07:15:21;45.45;;;22.55;;
55063;SDS011;40963;52.168;21.296;2022-12-19T07:17:48;55.63;;;19.25;;
55063;SDS011;40963;52.168;21.296;2022-12-19T07:20:14;37.00;;;15.57;;
55063;SDS011;40963;52.168;21.296;2022-12-19T07:22:40;38.35;;;16.25;;
55063;SDS011;40963;52.168;21.296;2022-12-19T07:25:07;33.15;;;15.15;;
55063;SDS011;40963;52.168;21.296;2022-12-19T07:27:33;47.20;;;19.60;;
55063;SDS011;40963;52.168;21.296;2022-12-19T07:29:59;37.95;;;16.42;;
55063;SDS011;40963;52.168;21.296;2022-12-19T07:32:24;30.30;;;13.02;;
55063;SDS011;40963;52.168;21.296;2022-12-19T07:34:53;19.67;;;11.80;;
55063;SDS011;40963;52.168;21.296;2022-12-19T07:37:18;26.92;;;13.27;;
55063;SDS011;40963;52.168;21.296;2022-12-19T07:39:45;68.63;;;28.38;;
55063;SDS011;40963;52.168;21.296;2022-12-19T07:42:11;53.17;;;23.80;;
55063;SDS011;40963;52.168;21.296;2022-12-19T07:44:37;74.88;;;28.27;;
55063;SDS011;40963;52.168;21.296;2022-12-19T07:47:03;90.13;;;33.88;;
55063;SDS011;40963;52.168;21.296;2022-12-19T07:49:29;74.38;;;24.33;;
55063;SDS011;40963;52.168;21.296;2022-12-19T07:51:55;51.45;;;21.15;;
55063;SDS011;40963;52.168;21.296;2022-12-19T07:54:20;43.95;;;19.98;;
55063;SDS011;40963;52.168;21.296;2022-12-19T07:56:46;49.65;;;20.70;;
55063;SDS011;40963;52.168;21.296;2022-12-19T07:59:12;46.40;;;16.00;;
55063;SDS011;40963;52.168;21.296;2022-12-19T08:01:37;59.67;;;19.77;;
55063;SDS011;40963;52.168;21.296;2022-12-19T08:04:03;38.83;;;17.83;;
55063;SDS011;40963;52.168;21.296;2022-12-19T08:06:29;46.25;;;17.77;;
55063;SDS011;40963;52.168;21.296;2022-12-19T08:08:54;35.88;;;16.48;;
55063;SDS011;40963;52.168;21.296;2022-12-19T08:11:21;27.33;;;11.77;;
55063;SDS011;40963;52.168;21.296;2022-12-19T08:13:51;46.35;;;19.10;;
55063;SDS011;40963;52.168;21.296;2022-12-19T08:16:17;40.10;;;15.75;;
55063;SDS011;40963;52.168;21.296;2022-12-19T08:18:42;58.33;;;24.70;;
55063;SDS011;40963;52.168;21.296;2022-12-19T08:21:08;56.28;;;22.63;;
55063;SDS011;40963;52.168;21.296;2022-12-19T08:23:34;42.70;;;17.75;;
55063;SDS011;40963;52.168;21.296;2022-12-19T08:26:01;46.10;;;19.00;;
55063;SDS011;40963;52.168;21.296;2022-12-19T08:28:29;40.50;;;15.00;;
55063;SDS011;40963;52.168;21.296;2022-12-19T08:30:56;37.92;;;13.48;;
55063;SDS011;40963;52.168;21.296;2022-12-19T08:33:21;32.42;;;16.73;;
55063;SDS011;40963;52.168;21.296;2022-12-19T08:35:47;40.72;;;15.07;;
55063;SDS011;40963;52.168;21.296;2022-12-19T08:38:13;28.35;;;12.15;;
55063;SDS011;40963;52.168;21.296;2022-12-19T08:40:38;30.50;;;13.25;;
55063;SDS011;40963;52.168;21.296;2022-12-19T08:43:04;30.10;;;13.68;;
55063;SDS011;40963;52.168;21.296;2022-12-19T08:45:29;25.05;;;11.65;;
55063;SDS011;40963;52.168;21.296;2022-12-19T08:47:55;47.67;;;14.55;;
55063;SDS011;40963;52.168;21.296;2022-12-19T08:50:21;36.47;;;14.23;;
55063;SDS011;40963;52.168;21.296;2022-12-19T08:52:46;25.90;;;12.40;;
55063;SDS011;40963;52.168;21.296;2022-12-19T08:55:12;27.17;;;11.30;;
55063;SDS011;40963;52.168;21.296;2022-12-19T08:57:38;29.38;;;12.23;;
55063;SDS011;40963;52.168;21.296;2022-12-19T09:00:04;49.65;;;17.60;;
55063;SDS011;40963;52.168;21.296;2022-12-19T09:02:30;42.92;;;17.10;;
55063;SDS011;40963;52.168;21.296;2022-12-19T09:04:56;38.08;;;14.93;;
55063;SDS011;40963;52.168;21.296;2022-12-19T09:07:21;21.35;;;10.27;;
55063;SDS011;40963;52.168;21.296;2022-12-19T09:09:47;33.33;;;14.07;;
55063;SDS011;40963;52.168;21.296;2022-12-19T09:12:13;45.63;;;18.63;;
55063;SDS011;40963;52.168;21.296;2022-12-19T09:14:40;30.27;;;13.55;;
55063;SDS011;40963;52.168;21.296;2022-12-19T09:17:05;41.17;;;15.50;;
55063;SDS011;40963;52.168;21.296;2022-12-19T09:19:31;24.15;;;13.02;;
55063;SDS011;40963;52.168;21.296;2022-12-19T09:21:57;36.00;;;12.85;;
55063;SDS011;40963;52.168;21.296;2022-12-19T09:24:22;33.65;;;14.05;;
55063;SDS011;40963;52.168;21.296;2022-12-19T09:26:48;37.05;;;14.05;;
55063;SDS011;40963;52.168;21.296;2022-12-19T09:29:14;32.25;;;12.95;;
55063;SDS011;40963;52.168;21.296;2022-12-19T09:31:39;36.00;;;14.10;;
55063;SDS011;40963;52.168;21.296;2022-12-19T09:34:05;28.42;;;13.68;;
55063;SDS011;40963;52.168;21.296;2022-12-19T09:36:31;41.53;;;14.52;;
55063;SDS011;40963;52.168;21.296;2022-12-19T09:38:57;43.40;;;16.95;;
55063;SDS011;40963;52.168;21.296;2022-12-19T09:41:46;51.10;;;16.73;;
55063;SDS011;40963;52.168;21.296;2022-12-19T09:47:17;31.73;;;13.55;;
55063;SDS011;40963;52.168;21.296;2022-12-19T09:49:46;39.92;;;16.25;;
55063;SDS011;40963;52.168;21.296;2022-12-19T09:52:17;40.53;;;16.23;;
55063;SDS011;40963;52.168;21.296;2022-12-19T09:57:32;36.35;;;15.43;;
55063;SDS011;40963;52.168;21.296;2022-12-19T10:00:06;38.45;;;15.48;;
55063;SDS011;40963;52.168;21.296;2022-12-19T10:02:39;41.80;;;15.55;;
55063;SDS011;40963;52.168;21.296;2022-12-19T10:07:39;38.40;;;16.42;;
55063;SDS011;40963;52.168;21.296;2022-12-19T10:10:04;42.78;;;17.73;;
55063;SDS011;40963;52.168;21.296;2022-12-19T10:22:50;54.25;;;23.65;;
55063;SDS011;40963;52.168;21.296;2022-12-19T10:25:35;32.97;;;14.52;;
55063;SDS011;40963;52.168;21.296;2022-12-19T10:28:07;38.50;;;16.80;;
55063;SDS011;40963;52.168;21.296;2022-12-19T10:30:50;38.50;;;15.20;;
55063;SDS011;40963;52.168;21.296;2022-12-19T10:33:34;29.13;;;11.98;;
55063;SDS011;40963;52.168;21.296;2022-12-19T10:36:08;41.90;;;13.32;;
55063;SDS011;40963;52.168;21.296;2022-12-19T10:38:37;29.40;;;13.07;;
55063;SDS011;40963;52.168;21.296;2022-12-19T10:41:16;36.00;;;14.02;;
55063;SDS011;40963;52.168;21.296;2022-12-19T10:44:04;29.25;;;11.00;;
55063;SDS011;40963;52.168;21.296;2022-12-19T10:49:19;24.30;;;7.97;;
55063;SDS011;40963;52.168;21.296;2022-12-19T10:57:16;30.73;;;11.38;;
55063;SDS011;40963;52.168;21.296;2022-12-19T11:02:45;27.45;;;12.23;;
55063;SDS011;40963;52.168;21.296;2022-12-19T11:05:27;18.05;;;9.88;;
55063;SDS011;40963;52.168;21.296;2022-12-19T11:10:40;26.33;;;12.43;;
55063;SDS011;40963;52.168;21.296;2022-12-19T11:16:03;32.22;;;12.25;;
55063;SDS011;40963;52.168;21.296;2022-12-19T11:18:38;21.77;;;9.85;;
55063;SDS011;40963;52.168;21.296;2022-12-19T11:26:28;24.77;;;10.30;;
55063;SDS011;40963;52.168;21.296;2022-12-19T11:29:21;27.30;;;10.63;;
55063;SDS011;40963;52.168;21.296;2022-12-19T11:31:55;32.92;;;12.05;;
55063;SDS011;40963;52.168;21.296;2022-12-19T11:34:26;19.58;;;9.00;;
55063;SDS011;40963;52.168;21.296;2022-12-19T11:40:00;19.42;;;7.97;;
55063;SDS011;40963;52.168;21.296;2022-12-19T11:42:57;21.83;;;7.57;;
55063;SDS011;40963;52.168;21.296;2022-12-19T11:53:33;21.15;;;7.85;;
55063;SDS011;40963;52.168;21.296;2022-12-19T11:56:09;38.63;;;9.80;;
55063;SDS011;40963;52.168;21.296;2022-12-19T11:58:38;16.73;;;7.03;;
55063;SDS011;40963;52.168;21.296;2022-12-19T12:06:21;23.00;;;7.38;;
55063;SDS011;40963;52.168;21.296;2022-12-19T12:09:15;29.75;;;10.77;;
55063;SDS011;40963;52.168;21.296;2022-12-19T12:12:01;28.95;;;9.63;;
55063;SDS011;40963;52.168;21.296;2022-12-19T12:15:11;21.92;;;8.68;;
55063;SDS011;40963;52.168;21.296;2022-12-19T12:18:06;34.58;;;13.98;;
55063;SDS011;40963;52.168;21.296;2022-12-19T12:20:46;22.58;;;8.68;;
55063;SDS011;40963;52.168;21.296;2022-12-19T12:26:23;14.70;;;8.20;;
55063;SDS011;40963;52.168;21.296;2022-12-19T12:31:43;16.88;;;7.30;;
55063;SDS011;40963;52.168;21.296;2022-12-19T12:37:23;24.33;;;9.27;;
55063;SDS011;40963;52.168;21.296;2022-12-19T12:45:17;22.75;;;9.98;;
55063;SDS011;40963;52.168;21.296;2022-12-19T12:47:47;24.48;;;9.95;;
55063;SDS011;40963;52.168;21.296;2022-12-19T12:50:15;21.65;;;8.73;;
55063;SDS011;40963;52.168;21.296;2022-12-19T12:52:47;17.30;;;8.93;;
55063;SDS011;40963;52.168;21.296;2022-12-19T12:55:23;25.33;;;10.25;;
55063;SDS011;40963;52.168;21.296;2022-12-19T12:57:49;25.80;;;9.13;;
55063;SDS011;40963;52.168;21.296;2022-12-19T13:11:01;23.23;;;8.85;;
55063;SDS011;40963;52.168;21.296;2022-12-19T13:13:47;26.10;;;11.35;;
55063;SDS011;40963;52.168;21.296;2022-12-19T13:19:16;33.83;;;9.88;;
55063;SDS011;40963;52.168;21.296;2022-12-19T13:24:44;24.83;;;8.90;;
55063;SDS011;40963;52.168;21.296;2022-12-19T13:32:25;23.25;;;9.68;;
55063;SDS011;40963;52.168;21.296;2022-12-19T13:34:52;27.08;;;9.90;;
55063;SDS011;40963;52.168;21.296;2022-12-19T13:37:22;20.75;;;9.98;;
55063;SDS011;40963;52.168;21.296;2022-12-19T13:42:21;22.02;;;8.95;;
55063;SDS011;40963;52.168;21.296;2022-12-19T13:45:24;18.40;;;8.20;;
55063;SDS011;40963;52.168;21.296;2022-12-19T13:47:56;18.95;;;9.52;;
55063;SDS011;40963;52.168;21.296;2022-12-19T13:53:20;18.83;;;8.60;;
55063;SDS011;40963;52.168;21.296;2022-12-19T13:55:47;27.48;;;8.13;;
55063;SDS011;40963;52.168;21.296;2022-12-19T13:58:20;30.60;;;9.85;;
55063;SDS011;40963;52.168;21.296;2022-12-19T14:00:49;18.42;;;8.25;;
55063;SDS011;40963;52.168;21.296;2022-12-19T14:03:17;30.33;;;10.50;;
55063;SDS011;40963;52.168;21.296;2022-12-19T14:05:45;12.52;;;7.15;;
55063;SDS011;40963;52.168;21.296;2022-12-19T14:08:15;23.75;;;10.38;;
55063;SDS011;40963;52.168;21.296;2022-12-19T14:10:45;16.10;;;7.90;;
55063;SDS011;40963;52.168;21.296;2022-12-19T14:13:15;21.80;;;8.23;;
55063;SDS011;40963;52.168;21.296;2022-12-19T14:16:19;18.10;;;8.52;;
55063;SDS011;40963;52.168;21.296;2022-12-19T14:18:48;20.27;;;8.07;;
55063;SDS011;40963;52.168;21.296;2022-12-19T14:21:18;17.90;;;7.80;;
55063;SDS011;40963;52.168;21.296;2022-12-19T14:23:46;19.60;;;8.60;;
55063;SDS011;40963;52.168;21.296;2022-12-19T14:26:33;26.33;;;10.25;;
55063;SDS011;40963;52.168;21.296;2022-12-19T14:28:59;19.75;;;8.90;;
55063;SDS011;40963;52.168;21.296;2022-12-19T14:31:36;18.00;;;8.43;;
55063;SDS011;40963;52.168;21.296;2022-12-19T14:34:04;28.10;;;10.15;;
55063;SDS011;40963;52.168;21.296;2022-12-19T14:36:31;22.38;;;9.45;;
55063;SDS011;40963;52.168;21.296;2022-12-19T14:38:58;16.25;;;8.88;;
55063;SDS011;40963;52.168;21.296;2022-12-19T14:44:15;12.98;;;7.18;;
55063;SDS011;40963;52.168;21.296;2022-12-19T14:46:41;16.60;;;8.13;;
55063;SDS011;40963;52.168;21.296;2022-12-19T14:49:24;24.88;;;9.10;;
55063;SDS011;40963;52.168;21.296;2022-12-19T14:51:54;21.35;;;10.25;;
55063;SDS011;40963;52.168;21.296;2022-12-19T14:54:20;33.70;;;13.52;;
55063;SDS011;40963;52.168;21.296;2022-12-19T14:59:21;32.13;;;12.52;;
55063;SDS011;40963;52.168;21.296;2022-12-19T15:07:04;33.17;;;11.32;;
55063;SDS011;40963;52.168;21.296;2022-12-19T15:09:45;27.73;;;9.38;;
55063;SDS011;40963;52.168;21.296;2022-12-19T15:12:24;26.13;;;10.85;;
55063;SDS011;40963;52.168;21.296;2022-12-19T15:17:51;34.63;;;11.57;;
55063;SDS011;40963;52.168;21.296;2022-12-19T15:20:20;29.92;;;13.15;;
55063;SDS011;40963;52.168;21.296;2022-12-19T15:22:46;18.10;;;8.57;;
55063;SDS011;40963;52.168;21.296;2022-12-19T15:25:13;28.48;;;11.85;;
55063;SDS011;40963;52.168;21.296;2022-12-19T15:27:41;25.08;;;10.52;;
55063;SDS011;40963;52.168;21.296;2022-12-19T15:30:12;27.10;;;11.30;;
55063;SDS011;40963;52.168;21.296;2022-12-19T15:32:40;15.13;;;7.88;;
55063;SDS011;40963;52.168;21.296;2022-12-19T15:35:09;15.85;;;7.45;;
55063;SDS011;40963;52.168;21.296;2022-12-19T15:37:36;27.23;;;12.05;;
55063;SDS011;40963;52.168;21.296;2022-12-19T15:40:02;28.27;;;11.13;;
55063;SDS011;40963;52.168;21.296;2022-12-19T15:42:27;26.92;;;10.23;;
55063;SDS011;40963;52.168;21.296;2022-12-19T15:44:53;16.48;;;8.85;;
55063;SDS011;40963;52.168;21.296;2022-12-19T15:49:57;30.20;;;11.90;;
55063;SDS011;40963;52.168;21.296;2022-12-19T15:52:26;20.20;;;9.50;;
55063;SDS011;40963;52.168;21.296;2022-12-19T15:54:53;36.95;;;10.75;;
55063;SDS011;40963;52.168;21.296;2022-12-19T15:59:53;28.98;;;12.00;;
55063;SDS011;40963;52.168;21.296;2022-12-19T16:02:22;22.55;;;11.40;;
55063;SDS011;40963;52.168;21.296;2022-12-19T16:04:50;25.10;;;11.20;;
55063;SDS011;40963;52.168;21.296;2022-12-19T16:07:17;24.83;;;10.95;;
55063;SDS011;40963;52.168;21.296;2022-12-19T16:09:44;20.25;;;11.38;;
55063;SDS011;40963;52.168;21.296;2022-12-19T16:12:12;30.98;;;12.95;;
55063;SDS011;40963;52.168;21.296;2022-12-19T16:14:59;29.38;;;10.85;;
55063;SDS011;40963;52.168;21.296;2022-12-19T16:17:25;25.85;;;9.88;;
55063;SDS011;40963;52.168;21.296;2022-12-19T16:19:54;21.90;;;10.27;;
55063;SDS011;40963;52.168;21.296;2022-12-19T16:22:23;22.70;;;11.25;;
55063;SDS011;40963;52.168;21.296;2022-12-19T16:24:51;32.15;;;12.00;;
55063;SDS011;40963;52.168;21.296;2022-12-19T16:27:20;28.45;;;13.73;;
55063;SDS011;40963;52.168;21.296;2022-12-19T16:29:50;30.40;;;12.70;;
55063;SDS011;40963;52.168;21.296;2022-12-19T16:32:17;29.13;;;11.50;;
55063;SDS011;40963;52.168;21.296;2022-12-19T16:34:44;39.83;;;13.18;;
55063;SDS011;40963;52.168;21.296;2022-12-19T16:37:09;22.23;;;9.35;;
55063;SDS011;40963;52.168;21.296;2022-12-19T16:39:35;16.85;;;7.32;;
55063;SDS011;40963;52.168;21.296;2022-12-19T16:42:02;26.05;;;11.05;;
55063;SDS011;40963;52.168;21.296;2022-12-19T16:44:29;21.90;;;9.73;;
55063;SDS011;40963;52.168;21.296;2022-12-19T16:46:57;32.70;;;12.20;;
55063;SDS011;40963;52.168;21.296;2022-12-19T16:49:22;31.67;;;13.68;;
55063;SDS011;40963;52.168;21.296;2022-12-19T16:51:48;31.25;;;13.07;;
55063;SDS011;40963;52.168;21.296;2022-12-19T16:54:14;33.38;;;11.05;;
55063;SDS011;40963;52.168;21.296;2022-12-19T16:57:02;37.75;;;13.90;;
55063;SDS011;40963;52.168;21.296;2022-12-19T16:59:34;32.25;;;11.57;;
55063;SDS011;40963;52.168;21.296;2022-12-19T17:04:51;30.65;;;10.95;;